Hoopeston, Illinois
Current Conditions -  °F | °C
As of 11:35 PM on Sunday 19 Oct 2014 (Local Time) from KDNV Reporting Station
Overcast Overcast  
Wind Chill: 44°   Ceiling: 9500
Heat Index: 48°   Visibility: 10mi
Dew Point: 43°   Wind: 9mph
Humidity: 83%   Direction: 210°SSW
Pressure: 29.98"   Gusts: NA
Location:  40.47°N, 87.67°W
Report Text: KDNV 200435Z AUTO 21008KT 10SM BKN095 OVC110 09/06 A2998 RMK AO2 T00880060
Loading
Personal Weather Stations






























Interactive Weather Map
Tropical Storm Tracking
New forecast layout! Learn more

10-Day Weather Forecast

Advertisements
Track Severe Weather on mobile